createdAt,value
2023-04-10T00:01:56.887Z,98582.47
2023-04-10T00:03:58.687Z,98575.69
2023-04-10T00:06:00.427Z,98570.59
2023-04-10T00:08:03.281Z,98568.03
2023-04-10T00:10:04.588Z,98573.09
2023-04-10T00:12:06.467Z,98574.81
2023-04-10T00:14:07.763Z,98574.81
2023-04-10T00:16:09.101Z,98570.59
2023-04-10T00:18:10.454Z,98564.63
2023-04-10T00:20:11.816Z,98568.88
2023-04-10T00:22:13.102Z,98572.28
2023-04-10T00:24:14.496Z,98574.00
2023-04-10T00:26:15.925Z,98572.28
2023-04-10T00:28:17.306Z,98567.22
2023-04-10T00:30:18.673Z,98563.00
2023-04-10T00:32:20.064Z,98568.97
2023-04-10T00:34:21.402Z,98563.88
2023-04-10T00:36:22.785Z,98566.44
2023-04-10T00:38:24.427Z,98563.94
2023-04-10T00:40:26.027Z,98569.88
2023-04-10T00:42:27.384Z,98563.97
2023-04-10T00:44:28.861Z,98567.41
2023-04-10T00:46:30.311Z,98573.38
2023-04-10T00:48:31.668Z,98564.03
2023-04-10T00:50:32.957Z,98569.13
2023-04-10T00:52:34.285Z,98565.78
2023-04-10T00:54:36.284Z,98569.19
2023-04-10T00:56:37.633Z,98563.22
2023-04-10T00:58:39.428Z,98561.50
2023-04-10T01:00:41.208Z,98565.78
2023-04-10T01:02:42.699Z,98564.03
2023-04-10T01:04:44.130Z,98567.41
2023-04-10T01:06:46.184Z,98567.41
2023-04-10T01:08:47.507Z,98567.41
2023-04-10T01:10:48.858Z,98569.88
2023-04-10T01:12:50.520Z,98572.41
2023-04-10T01:14:51.814Z,98572.38
2023-04-10T01:16:53.719Z,98571.47
2023-04-10T01:18:55.445Z,98573.19
2023-04-10T01:20:56.743Z,98568.91
2023-04-10T01:22:58.070Z,98561.22
2023-04-10T01:24:59.370Z,98567.16
2023-04-10T01:27:01.552Z,98558.66
2023-04-10T01:29:03.727Z,98559.47
2023-04-10T01:31:05.149Z,98562.84
2023-04-10T01:33:06.650Z,98565.38
2023-04-10T01:35:08.163Z,98569.66
2023-04-10T01:37:09.547Z,98562.03
2023-04-10T01:39:10.889Z,98563.69
2023-04-10T01:41:12.192Z,98559.41
2023-04-10T01:43:13.490Z,98563.66
2023-04-10T01:45:14.818Z,98558.53
2023-04-10T01:47:19.209Z,98556.84
2023-04-10T01:49:20.527Z,98559.41
2023-04-10T01:51:21.829Z,98561.16
2023-04-10T01:53:23.129Z,98551.78
2023-04-10T01:55:24.473Z,98555.16
2023-04-10T01:57:25.975Z,98553.44
2023-04-10T01:59:27.293Z,98550.88
2023-04-10T02:01:30.543Z,98553.47
2023-04-10T02:03:32.197Z,98550.06
2023-04-10T02:05:33.595Z,98550.97
2023-04-10T02:07:34.901Z,98547.56
2023-04-10T02:09:37.423Z,98555.25
2023-04-10T02:11:38.756Z,98551.00
2023-04-10T02:13:40.632Z,98553.53
2023-04-10T02:15:41.976Z,98556.06
2023-04-10T02:17:43.310Z,98552.69
2023-04-10T02:19:44.640Z,98551.81
2023-04-10T02:21:45.940Z,98554.41
2023-04-10T02:23:47.241Z,98550.97
2023-04-10T02:25:48.574Z,98547.50
2023-04-10T02:27:49.894Z,98557.69
2023-04-10T02:29:51.577Z,98555.16
2023-04-10T02:31:52.916Z,98550.91
2023-04-10T02:33:54.362Z,98552.63
2023-04-10T02:35:55.858Z,98545.84
2023-04-10T02:37:57.249Z,98544.97
2023-04-10T02:39:58.654Z,98546.72
2023-04-10T02:42:00.012Z,98544.16
2023-04-10T02:44:01.727Z,98543.28
2023-04-10T02:46:03.105Z,98552.63
2023-04-10T02:48:04.415Z,98552.63
2023-04-10T02:50:06.007Z,98552.63
2023-04-10T02:52:07.345Z,98545.81
2023-04-10T02:54:08.650Z,98547.47
2023-04-10T02:56:11.794Z,98544.91
2023-04-10T02:58:15.040Z,98547.44
2023-04-10T03:00:16.925Z,98550.81
2023-04-10T03:02:18.314Z,98549.94
2023-04-10T03:04:19.959Z,98546.50
2023-04-10T03:06:23.640Z,98545.63
2023-04-10T03:08:24.958Z,98546.47
2023-04-10T03:10:26.301Z,98547.31
2023-04-10T03:12:27.603Z,98543.09
2023-04-10T03:14:28.988Z,98543.09
2023-04-10T03:16:30.495Z,98541.44
2023-04-10T03:18:32.052Z,98544.03
2023-04-10T03:20:33.385Z,98544.03
2023-04-10T03:22:34.701Z,98541.44
2023-04-10T03:24:35.987Z,98537.09
2023-04-10T03:26:37.338Z,98539.59
2023-04-10T03:28:39.753Z,98553.28
2023-04-10T03:30:41.394Z,98546.50
2023-04-10T03:32:43.172Z,98545.69
2023-04-10T03:34:44.461Z,98549.94
2023-04-10T03:36:46.675Z,98550.81
2023-04-10T03:38:48.019Z,98551.69
2023-04-10T03:40:49.324Z,98549.13
2023-04-10T03:42:50.652Z,98547.44
2023-04-10T03:44:51.947Z,98548.28
2023-04-10T03:46:53.244Z,98550.84
2023-04-10T03:48:54.552Z,98554.22
2023-04-10T03:50:55.966Z,98554.25
2023-04-10T03:52:57.324Z,98555.06
2023-04-10T03:54:58.643Z,98549.94
2023-04-10T03:56:59.939Z,98547.41
2023-04-10T03:59:01.251Z,98547.44
2023-04-10T04:01:02.579Z,98553.41
2023-04-10T04:03:05.123Z,98554.28
2023-04-10T04:05:06.745Z,98559.44
2023-04-10T04:07:08.939Z,98549.28
2023-04-10T04:09:10.250Z,98550.16
2023-04-10T04:11:11.541Z,98558.75
2023-04-10T04:13:12.847Z,98555.41
2023-04-10T04:15:14.138Z,98553.78
2023-04-10T04:17:15.579Z,98548.75
2023-04-10T04:19:16.904Z,98562.41
2023-04-10T04:21:18.210Z,98562.47
2023-04-10T04:23:19.624Z,98559.94
2023-04-10T04:25:21.041Z,98561.59
2023-04-10T04:27:23.238Z,98559.84
2023-04-10T04:29:24.582Z,98561.56
2023-04-10T04:31:32.293Z,98556.38
2023-04-10T04:33:33.716Z,98564.75
2023-04-10T04:35:35.059Z,98561.22
2023-04-10T04:37:36.408Z,98564.56
2023-04-10T04:39:37.768Z,98567.03
2023-04-10T04:41:39.112Z,98565.28
2023-04-10T04:43:40.675Z,98566.06
2023-04-10T04:45:42.034Z,98571.97
2023-04-10T04:47:43.464Z,98568.50
2023-04-10T04:49:44.847Z,98577.00
2023-04-10T04:51:46.162Z,98574.41
2023-04-10T04:53:47.494Z,98585.44
2023-04-10T04:55:48.791Z,98590.56
2023-04-10T04:57:50.126Z,98594.81
2023-04-10T04:59:51.454Z,98596.56
2023-04-10T05:01:53.018Z,98596.53
2023-04-10T05:03:54.497Z,98596.44
2023-04-10T05:05:56.024Z,98593.81
2023-04-10T05:07:57.312Z,98598.88
2023-04-10T05:09:58.661Z,98597.97
2023-04-10T05:12:00.374Z,98606.53
2023-04-10T05:14:01.783Z,98606.59
2023-04-10T05:16:03.088Z,98610.81
2023-04-10T05:18:04.529Z,98609.19
2023-04-10T05:20:06.046Z,98610.91
2023-04-10T05:22:07.386Z,98616.88
2023-04-10T05:24:09.414Z,98616.06
2023-04-10T05:26:10.879Z,98620.34
2023-04-10T05:28:12.178Z,98616.97
2023-04-10T05:30:13.493Z,98622.13
2023-04-10T05:32:14.815Z,98618.69
2023-04-10T05:34:17.081Z,98616.97
2023-04-10T05:36:18.483Z,98623.00
2023-04-10T05:38:19.853Z,98613.69
2023-04-10T05:40:21.151Z,98618.81
2023-04-10T05:42:23.897Z,98619.72
2023-04-10T05:44:25.376Z,98613.75
2023-04-10T05:46:26.766Z,98615.50
2023-04-10T05:48:28.893Z,98612.09
2023-04-10T05:50:30.668Z,98618.81
2023-04-10T05:52:32.754Z,98614.47
2023-04-10T05:54:34.087Z,98618.03
2023-04-10T05:56:35.390Z,98613.78
2023-04-10T05:58:37.027Z,98612.94
2023-04-10T06:00:38.340Z,98617.25
2023-04-10T06:02:40.038Z,98618.91
2023-04-10T06:04:41.632Z,98617.16
2023-04-10T06:06:43.035Z,98617.13
2023-04-10T06:08:44.334Z,98622.19
2023-04-10T06:10:46.182Z,98617.03
2023-04-10T06:12:47.674Z,98610.16
2023-04-10T06:14:49.096Z,98607.59
2023-04-10T06:16:50.532Z,98604.16
2023-04-10T06:18:52.805Z,98612.63
2023-04-10T06:21:00.279Z,98612.63
2023-04-10T06:23:02.172Z,98613.44
2023-04-10T06:25:03.524Z,98605.72
2023-04-10T06:27:04.857Z,98614.25
2023-04-10T06:29:06.212Z,98617.63
2023-04-10T06:31:07.651Z,98620.19
2023-04-10T06:33:08.970Z,98619.38
2023-04-10T06:35:10.451Z,98618.47
2023-04-10T06:37:11.787Z,98624.47
2023-04-10T06:39:13.106Z,98518.03
2023-04-10T06:41:14.407Z,98613.44
2023-04-10T06:43:16.005Z,98616.03
2023-04-10T06:45:17.294Z,98612.66
2023-04-10T06:47:18.710Z,98610.16
2023-04-10T06:49:20.646Z,98608.44
2023-04-10T06:51:21.937Z,98614.47
2023-04-10T06:53:23.244Z,98616.16
2023-04-10T06:55:24.528Z,98617.03
2023-04-10T06:57:25.955Z,98616.22
2023-04-10T06:59:27.252Z,98609.41
2023-04-10T07:01:28.630Z,98611.94
2023-04-10T07:03:30.048Z,98615.38
2023-04-10T07:05:31.458Z,98611.16
2023-04-10T07:07:33.016Z,98617.97
2023-04-10T07:09:37.311Z,98612.91
2023-04-10T07:11:38.659Z,98615.50
2023-04-10T07:13:40.223Z,98606.97
2023-04-10T07:15:41.553Z,98618.00
2023-04-10T07:17:42.908Z,98606.63
2023-04-10T07:19:44.275Z,98614.22
2023-04-10T07:21:45.669Z,98610.81
2023-04-10T07:23:47.293Z,98610.03
2023-04-10T07:25:48.660Z,98609.13
2023-04-10T07:27:49.993Z,98602.13
2023-04-10T07:29:51.329Z,98599.34
2023-04-10T07:31:52.806Z,98603.59
2023-04-10T07:33:54.253Z,98594.31
2023-04-10T07:35:55.638Z,98597.84
2023-04-10T07:37:56.967Z,98595.38
2023-04-10T07:39:58.482Z,98596.56
2023-04-10T07:41:59.787Z,98600.03
2023-04-10T07:44:01.089Z,98592.41
2023-04-10T07:46:05.582Z,98589.00
2023-04-10T07:48:07.039Z,98590.72
2023-04-10T07:50:08.369Z,98589.81
2023-04-10T07:52:09.860Z,98588.94
2023-04-10T07:54:11.209Z,98587.22
2023-04-10T07:56:12.512Z,98582.00
2023-04-10T07:58:13.820Z,98583.63
2023-04-10T08:00:15.508Z,98573.34
2023-04-10T08:02:16.900Z,98574.16
2023-04-10T08:04:18.555Z,98575.88
2023-04-10T08:06:20.349Z,98572.44
2023-04-10T08:08:21.663Z,98563.94
2023-04-10T08:10:23.026Z,98574.16
2023-04-10T08:12:24.341Z,98573.31
2023-04-10T08:14:25.661Z,98564.88
2023-04-10T08:16:27.048Z,98574.25
2023-04-10T08:18:28.470Z,98564.06
2023-04-10T08:20:29.838Z,98562.41
2023-04-10T08:22:31.193Z,98565.00
2023-04-10T08:24:32.562Z,98559.06
2023-04-10T08:26:33.855Z,98559.94
2023-04-10T08:28:36.442Z,98560.78
2023-04-10T08:30:37.817Z,98553.16
2023-04-10T08:32:39.503Z,98556.59
2023-04-10T08:34:40.826Z,98555.75
2023-04-10T08:36:42.152Z,98562.56
2023-04-10T08:38:43.642Z,98554.06
2023-04-10T08:40:45.049Z,98560.84
2023-04-10T08:42:46.366Z,98569.38
2023-04-10T08:44:47.694Z,98551.53
2023-04-10T08:46:49.040Z,98553.25
2023-04-10T08:48:50.372Z,98556.69
2023-04-10T08:50:51.715Z,98557.53
2023-04-10T08:52:56.923Z,98555.88
2023-04-10T08:54:58.680Z,98554.28
2023-04-10T08:57:02.228Z,98543.34
2023-04-10T08:59:03.597Z,98557.06
2023-04-10T09:01:04.947Z,98554.63
2023-04-10T09:03:08.563Z,98546.22
2023-04-10T09:05:10.258Z,98551.34
2023-04-10T09:07:11.554Z,98546.25
2023-04-10T09:09:12.853Z,98548.78
2023-04-10T09:11:14.199Z,98544.50
2023-04-10T09:13:15.529Z,98541.94
2023-04-10T09:15:16.874Z,98538.47
2023-04-10T09:17:18.257Z,98537.50
2023-04-10T09:19:19.560Z,98535.69
2023-04-10T09:21:20.970Z,98534.81
2023-04-10T09:23:22.358Z,98540.69
2023-04-10T09:25:23.710Z,98534.69
2023-04-10T09:27:25.004Z,98533.00
2023-04-10T09:29:26.325Z,98534.69
2023-04-10T09:31:27.831Z,98538.91
2023-04-10T09:33:30.172Z,98529.56
2023-04-10T09:35:31.508Z,98533.00
2023-04-10T09:37:32.818Z,98525.28
2023-04-10T09:39:34.193Z,98527.81
2023-04-10T09:41:35.543Z,98522.69
2023-04-10T09:43:36.857Z,98515.84
2023-04-10T09:45:38.156Z,98515.03
2023-04-10T09:47:39.463Z,98513.28
2023-04-10T09:49:40.764Z,98512.50
2023-04-10T09:51:43.312Z,98512.00
2023-04-10T09:53:44.628Z,98502.69
2023-04-10T09:55:45.919Z,98507.91
2023-04-10T09:57:47.220Z,98502.75
2023-04-10T09:59:48.647Z,98510.38
2023-04-10T10:01:50.079Z,98506.63
2023-04-10T10:03:51.729Z,98503.72
2023-04-10T10:05:53.149Z,98513.06
2023-04-10T10:07:54.443Z,98503.06
2023-04-10T10:09:55.892Z,98496.63
2023-04-10T10:11:57.365Z,98500.16
2023-04-10T10:13:59.815Z,98491.63
2023-04-10T10:16:01.352Z,98504.53
2023-04-10T10:18:02.735Z,98499.44
2023-04-10T10:20:04.193Z,98501.00
2023-04-10T10:22:05.508Z,98489.53
2023-04-10T10:24:06.948Z,98489.94
2023-04-10T10:26:08.237Z,98483.47
2023-04-10T10:28:09.535Z,98463.84
2023-04-10T10:30:28.084Z,98482.28
2023-04-10T10:32:30.018Z,98481.78
2023-04-10T10:34:31.913Z,98480.19
2023-04-10T10:36:33.298Z,98482.84
2023-04-10T10:38:34.661Z,98472.63
2023-04-10T10:40:36.147Z,98472.66
2023-04-10T10:42:37.480Z,98468.34
2023-04-10T10:44:38.818Z,98470.06
2023-04-10T10:46:40.431Z,98462.41
2023-04-10T10:48:41.737Z,98454.75
2023-04-10T10:50:43.076Z,98451.34
2023-04-10T10:52:44.582Z,98446.19
2023-04-10T10:54:53.812Z,98447.84
2023-04-10T10:57:00.408Z,98436.72
2023-04-10T10:59:02.146Z,98447.91
2023-04-10T11:01:03.533Z,98433.38
2023-04-10T11:03:04.941Z,98438.34
2023-04-10T11:05:06.392Z,98426.41
2023-04-10T11:07:07.698Z,98423.00
2023-04-10T11:09:09.007Z,98427.28
2023-04-10T11:11:10.701Z,98428.19
2023-04-10T11:13:12.288Z,98426.53
2023-04-10T11:15:13.597Z,98418.88
2023-04-10T11:17:14.918Z,98416.31
2023-04-10T11:19:20.824Z,98414.66
2023-04-10T11:21:23.814Z,98411.25
2023-04-10T11:23:25.321Z,98408.72
2023-04-10T11:25:27.240Z,98407.03
2023-04-10T11:27:28.563Z,98403.59
2023-04-10T11:29:31.402Z,98395.97
2023-04-10T11:31:32.748Z,98401.13
2023-04-10T11:33:34.056Z,98395.97
2023-04-10T11:35:35.532Z,98385.69
2023-04-10T11:37:36.917Z,98397.63
2023-04-10T11:39:38.208Z,98388.91
2023-04-10T11:41:39.532Z,98383.81
2023-04-10T11:43:41.257Z,98383.84
2023-04-10T11:45:42.621Z,98382.19
2023-04-10T11:47:43.972Z,98386.50
2023-04-10T11:49:45.488Z,98380.63
2023-04-10T11:51:46.919Z,98380.72
2023-04-10T11:53:48.293Z,98387.78
2023-04-10T11:55:49.741Z,98374.13
2023-04-10T11:57:51.047Z,98370.16
2023-04-10T11:59:52.373Z,98360.03
2023-04-10T12:01:54.330Z,98365.75
2023-04-10T12:03:56.161Z,98368.09
2023-04-10T12:05:57.621Z,98359.03
2023-04-10T12:07:58.923Z,98359.97
2023-04-10T12:10:00.533Z,98357.41
2023-04-10T12:12:02.991Z,98353.06
2023-04-10T12:14:04.319Z,98357.34
2023-04-10T12:16:05.773Z,98356.53
2023-04-10T12:18:07.100Z,98353.13
2023-04-10T12:20:08.650Z,98347.00
2023-04-10T12:22:09.949Z,98343.44
2023-04-10T12:24:11.247Z,98347.66
2023-04-10T12:26:12.687Z,98350.31
2023-04-10T12:28:13.983Z,98346.97
2023-04-10T12:30:15.419Z,98339.41
2023-04-10T12:32:16.740Z,98337.75
2023-04-10T12:34:18.064Z,98331.03
2023-04-10T12:36:19.404Z,98331.91
2023-04-10T12:38:20.736Z,98327.56
2023-04-10T12:40:22.040Z,98315.69
2023-04-10T12:42:23.407Z,98322.53
2023-04-10T12:44:24.742Z,98323.34
2023-04-10T12:46:26.201Z,98309.63
2023-04-10T12:48:27.577Z,98312.13
2023-04-10T12:50:28.920Z,98304.34
2023-04-10T12:52:30.388Z,98302.66
2023-04-10T12:54:32.101Z,98308.59
2023-04-10T12:56:33.476Z,98300.16
2023-04-10T12:58:34.891Z,98298.59
2023-04-10T13:00:36.501Z,98297.94
2023-04-10T13:02:38.265Z,98292.00
2023-04-10T13:04:40.097Z,98290.34
2023-04-10T13:06:41.898Z,98291.19
2023-04-10T13:08:43.388Z,98288.63
2023-04-10T13:10:44.851Z,98281.91
2023-04-10T13:12:46.177Z,98283.59
2023-04-10T13:14:47.764Z,98282.00
2023-04-10T13:16:49.202Z,98281.25
2023-04-10T13:18:50.571Z,98281.19
2023-04-10T13:20:51.921Z,98282.03
2023-04-10T13:22:53.216Z,98274.44
2023-04-10T13:24:54.499Z,98265.06
2023-04-10T13:26:57.288Z,98268.53
2023-04-10T13:28:58.577Z,98264.38
2023-04-10T13:30:59.978Z,98270.31
2023-04-10T13:33:01.371Z,98270.38
2023-04-10T13:35:02.706Z,98259.34
2023-04-10T13:37:04.063Z,98266.16
2023-04-10T13:39:05.816Z,98258.50
2023-04-10T13:41:07.144Z,98256.91
2023-04-10T13:43:08.478Z,98258.59
2023-04-10T13:45:09.802Z,98254.44
2023-04-10T13:47:11.150Z,98246.81
2023-04-10T13:49:17.008Z,98240.91
2023-04-10T13:51:18.357Z,98241.78
2023-04-10T13:53:19.708Z,98246.06
2023-04-10T13:55:21.081Z,98242.72
2023-04-10T13:57:22.391Z,98243.56
2023-04-10T13:59:23.678Z,98241.88
2023-04-10T14:01:25.061Z,98244.31
2023-04-10T14:03:26.514Z,98229.78
2023-04-10T14:05:27.943Z,98229.81
2023-04-10T14:07:29.364Z,98227.31
2023-04-10T14:09:30.730Z,98229.16
2023-04-10T14:11:32.047Z,98217.28
2023-04-10T14:13:33.395Z,98213.16
2023-04-10T14:15:34.753Z,98218.31
2023-04-10T14:17:36.422Z,98221.59
2023-04-10T14:19:37.780Z,98219.75
2023-04-10T14:21:40.513Z,98219.56
2023-04-10T14:23:42.708Z,98214.41
2023-04-10T14:25:44.135Z,98217.78
2023-04-10T14:27:45.783Z,98219.41
2023-04-10T14:29:54.386Z,98209.09
2023-04-10T14:31:58.121Z,98208.13
2023-04-10T14:33:59.704Z,98200.53
2023-04-10T14:36:01.358Z,98189.50
2023-04-10T14:38:02.675Z,98196.41
2023-04-10T14:40:05.030Z,98194.81
2023-04-10T14:42:06.357Z,98191.47
2023-04-10T14:44:07.699Z,98194.94
2023-04-10T14:46:09.042Z,98183.22
2023-04-10T14:48:12.662Z,98176.28
2023-04-10T14:50:14.438Z,98178.06
2023-04-10T14:52:15.728Z,98173.13
2023-04-10T14:54:19.612Z,98171.25
2023-04-10T14:56:21.090Z,98164.84
2023-04-10T14:58:22.507Z,98156.56
2023-04-10T15:00:25.284Z,98157.97
2023-04-10T15:02:26.663Z,98156.09
2023-04-10T15:04:28.500Z,98164.59
2023-04-10T15:06:32.969Z,98152.47
2023-04-10T15:08:34.275Z,98151.03
2023-04-10T15:10:35.685Z,98158.69
2023-04-10T15:12:37.046Z,98152.53
2023-04-10T15:14:38.344Z,98145.84
2023-04-10T15:16:39.659Z,98145.66
2023-04-10T15:18:41.002Z,98149.38
2023-04-10T15:20:42.314Z,98140.94
2023-04-10T15:22:48.131Z,98141.75
2023-04-10T15:24:51.097Z,98137.38
2023-04-10T15:26:53.658Z,98141.41
2023-04-10T15:28:55.011Z,98129.72
2023-04-10T15:30:57.685Z,98139.13
2023-04-10T15:32:59.341Z,98138.72
2023-04-10T15:35:00.728Z,98130.88
2023-04-10T15:37:02.070Z,98124.72
2023-04-10T15:39:03.926Z,98134.25
2023-04-10T15:41:05.291Z,98128.91
2023-04-10T15:43:06.621Z,98125.66
2023-04-10T15:45:07.971Z,98119.94
2023-04-10T15:47:09.488Z,98123.81
2023-04-10T15:49:10.772Z,98120.13
2023-04-10T15:51:12.080Z,98112.13
2023-04-10T15:53:13.388Z,98123.63
2023-04-10T15:55:15.726Z,98120.53
2023-04-10T15:57:17.150Z,98113.13
2023-04-10T15:59:18.484Z,98104.34
2023-04-10T16:01:19.854Z,98104.84
2023-04-10T16:03:21.366Z,98106.25
2023-04-10T16:05:22.740Z,98094.56
2023-04-10T16:07:24.089Z,98093.03
2023-04-10T16:09:28.084Z,98087.88
2023-04-10T16:11:35.256Z,98083.88
2023-04-10T16:13:38.646Z,98078.09
2023-04-10T16:15:41.321Z,98075.91
2023-04-10T16:17:42.983Z,98070.91
2023-04-10T16:19:44.364Z,98075.78
2023-04-10T16:21:48.855Z,98077.47
2023-04-10T16:23:50.298Z,98068.13
2023-04-10T16:25:51.647Z,98071.75
2023-04-10T16:27:52.953Z,98070.94
2023-04-10T16:29:54.246Z,98064.56
2023-04-10T16:31:58.463Z,98062.84
2023-04-10T16:34:02.222Z,98057.28
2023-04-10T16:36:04.756Z,98055.69
2023-04-10T16:38:06.085Z,98060.94
2023-04-10T16:40:10.789Z,98053.22
2023-04-10T16:42:12.120Z,98048.97
2023-04-10T16:44:13.534Z,98049.53
2023-04-10T16:46:15.032Z,98050.28
2023-04-10T16:48:16.417Z,98039.75
2023-04-10T16:50:17.764Z,98046.44
2023-04-10T16:52:19.094Z,98042.78
2023-04-10T16:54:20.503Z,98035.81
2023-04-10T16:56:21.822Z,98033.09
2023-04-10T16:58:23.168Z,98027.78
2023-04-10T17:00:24.465Z,98035.41
2023-04-10T17:02:25.939Z,98030.25
2023-04-10T17:04:30.277Z,98035.25
2023-04-10T17:06:31.776Z,98025.06
2023-04-10T17:08:33.096Z,98024.16
2023-04-10T17:10:34.407Z,98028.75
2023-04-10T17:12:38.678Z,98026.31
2023-04-10T17:14:40.134Z,98022.19
2023-04-10T17:16:41.581Z,98019.63
2023-04-10T17:18:46.199Z,98021.31
2023-04-10T17:20:48.404Z,98018.53
2023-04-10T17:22:49.788Z,98024.84
2023-04-10T17:24:51.088Z,98025.56
2023-04-10T17:26:52.396Z,98024.69
2023-04-10T17:28:54.085Z,98013.03
2023-04-10T17:30:55.603Z,98017.84
2023-04-10T17:32:57.078Z,98024.56
2023-04-10T17:35:07.220Z,98027.91
2023-04-10T17:37:08.640Z,98023.66
2023-04-10T17:39:18.716Z,98027.75
2023-04-10T17:41:23.290Z,98026.78
2023-04-10T17:43:24.677Z,98028.63
2023-04-10T17:45:26.008Z,98025.09
2023-04-10T17:47:27.422Z,98025.44
2023-04-10T17:49:28.841Z,98015.06
2023-04-10T17:51:31.574Z,98012.75
2023-04-10T17:53:32.896Z,98006.81
2023-04-10T17:55:34.270Z,98005.59
2023-04-10T17:57:35.614Z,98007.50
2023-04-10T17:59:45.804Z,98008.66
2023-04-10T18:01:47.234Z,98001.22
2023-04-10T18:03:49.031Z,97993.69
2023-04-10T18:05:50.488Z,97995.22
2023-04-10T18:07:54.498Z,97989.16
2023-04-10T18:09:55.824Z,97986.81
2023-04-10T18:11:57.416Z,97985.28
2023-04-10T18:13:58.709Z,97972.16
2023-04-10T18:16:00.054Z,97982.16
2023-04-10T18:18:01.458Z,97978.75
2023-04-10T18:20:02.875Z,97989.59
2023-04-10T18:22:04.186Z,97984.78
2023-04-10T18:24:08.550Z,97989.91
2023-04-10T18:26:15.752Z,97979.59
2023-04-10T18:28:18.163Z,97975.25
2023-04-10T18:30:21.335Z,97978.75
2023-04-10T18:32:22.652Z,97978.81
2023-04-10T18:34:23.948Z,97979.75
2023-04-10T18:36:25.787Z,97972.84
2023-04-10T18:38:27.313Z,97974.13
2023-04-10T18:40:28.679Z,97978.41
2023-04-10T18:42:29.995Z,97972.53
2023-04-10T18:44:32.162Z,97969.13
2023-04-10T18:46:38.261Z,97971.16
2023-04-10T18:48:39.646Z,97974.34
2023-04-10T18:50:41.106Z,97973.00
2023-04-10T18:52:42.421Z,97972.75
2023-04-10T18:54:43.766Z,97969.78
2023-04-10T18:56:45.201Z,97962.81
2023-04-10T18:58:50.265Z,97960.25
2023-04-10T19:00:51.739Z,97946.25
2023-04-10T19:02:53.221Z,97940.22
2023-04-10T19:04:54.778Z,97952.13
2023-04-10T19:06:56.186Z,97939.19
2023-04-10T19:09:00.261Z,97939.13
2023-04-10T19:11:04.935Z,97952.38
2023-04-10T19:13:06.244Z,97945.69
2023-04-10T19:15:10.265Z,97939.31
2023-04-10T19:17:14.454Z,97937.78
2023-04-10T19:19:15.804Z,97923.91
2023-04-10T19:21:17.107Z,97926.03
2023-04-10T19:23:18.528Z,97927.09
2023-04-10T19:25:19.847Z,97927.09
2023-04-10T19:27:23.985Z,97923.88
2023-04-10T19:29:25.410Z,97921.28
2023-04-10T19:31:30.902Z,97917.00
2023-04-10T19:33:32.251Z,97914.31
2023-04-10T19:35:33.669Z,97912.63
2023-04-10T19:37:40.998Z,97913.06
2023-04-10T19:39:42.365Z,97909.63
2023-04-10T19:41:44.171Z,97911.19
2023-04-10T19:43:45.668Z,97908.03
2023-04-10T19:45:47.098Z,97905.38
2023-04-10T19:47:48.435Z,97761.31
2023-04-10T19:49:49.786Z,97908.94
2023-04-10T19:51:51.129Z,97905.44
2023-04-10T19:53:52.424Z,97895.31
2023-04-10T19:55:54.272Z,97897.84
2023-04-10T19:57:55.744Z,97897.75
2023-04-10T19:59:57.079Z,97891.09
2023-04-10T20:01:58.546Z,97886.50
2023-04-10T20:04:00.156Z,97882.91
2023-04-10T20:06:01.602Z,97885.50
2023-04-10T20:08:02.934Z,97883.94
2023-04-10T20:10:04.342Z,97878.00
2023-04-10T20:12:05.640Z,97877.91
2023-04-10T20:14:06.982Z,97875.53
2023-04-10T20:18:09.631Z,97865.03
2023-04-10T20:20:13.275Z,97862.47
2023-04-10T20:22:14.633Z,97859.22
2023-04-10T20:24:15.935Z,97849.91
2023-04-10T20:26:17.263Z,97849.56
2023-04-10T20:28:18.686Z,97845.34
2023-04-10T20:30:23.089Z,97831.06
2023-04-10T20:32:24.384Z,97841.03
2023-04-10T20:34:25.860Z,97838.09
2023-04-10T20:36:27.217Z,97832.78
2023-04-10T20:38:28.549Z,97835.03
2023-04-10T20:40:29.834Z,97829.72
2023-04-10T20:42:31.163Z,97825.59
2023-04-10T20:44:32.455Z,97826.28
2023-04-10T20:46:33.837Z,97819.53
2023-04-10T20:48:39.019Z,97829.78
2023-04-10T20:50:40.356Z,97824.75
2023-04-10T20:52:41.723Z,97830.63
2023-04-10T20:54:43.030Z,97816.13
2023-04-10T20:56:44.421Z,97821.00
2023-04-10T20:58:45.827Z,97828.69
2023-04-10T21:00:47.211Z,97815.75
2023-04-10T21:02:48.862Z,97814.72
2023-04-10T21:04:50.240Z,97811.72
2023-04-10T21:06:51.543Z,97812.47
2023-04-10T21:08:53.038Z,97812.63
2023-04-10T21:10:56.265Z,97806.63
2023-04-10T21:12:57.561Z,97796.94
2023-04-10T21:14:58.902Z,97800.09
2023-04-10T21:17:00.294Z,97786.44
2023-04-10T21:19:02.219Z,97790.63
2023-04-10T21:21:03.560Z,97788.72
2023-04-10T21:23:04.893Z,97786.53
2023-04-10T21:25:06.360Z,97778.00
2023-04-10T21:27:08.096Z,97775.72
2023-04-10T21:29:09.440Z,97764.34
2023-04-10T21:31:10.903Z,97770.41
2023-04-10T21:33:12.196Z,97765.69
2023-04-10T21:35:13.554Z,97649.22
2023-04-10T21:37:14.892Z,97758.78
2023-04-10T21:39:16.232Z,97758.78
2023-04-10T21:41:17.552Z,97754.72
2023-04-10T21:43:18.849Z,97745.28
2023-04-10T21:45:20.247Z,97733.53
2023-04-10T21:47:21.599Z,97735.13
2023-04-10T21:49:22.910Z,97728.06
2023-04-10T21:51:26.733Z,97727.91
2023-04-10T21:53:28.193Z,97734.22
2023-04-10T21:55:29.495Z,97741.31
2023-04-10T21:57:30.800Z,97745.16
2023-04-10T21:59:32.295Z,97741.41
2023-04-10T22:01:33.670Z,97739.09
2023-04-10T22:03:35.183Z,97732.59
2023-04-10T22:05:36.528Z,97731.06
2023-04-10T22:07:37.864Z,97723.91
2023-04-10T22:09:39.159Z,97724.47
2023-04-10T22:11:40.513Z,97726.78
2023-04-10T22:13:41.889Z,97713.75
2023-04-10T22:15:43.187Z,97716.09
2023-04-10T22:17:45.512Z,97706.56
2023-04-10T22:19:46.884Z,97709.81
2023-04-10T22:21:48.185Z,97703.81
2023-04-10T22:23:49.496Z,97697.75
2023-04-10T22:25:50.872Z,97698.56
2023-04-10T22:27:52.324Z,97694.25
2023-04-10T22:30:02.716Z,97683.94
2023-04-10T22:32:05.425Z,97676.22
2023-04-10T22:34:06.730Z,97678.78
2023-04-10T22:36:08.063Z,97686.50
2023-04-10T22:38:09.520Z,97676.28
2023-04-10T22:40:10.875Z,97677.00
2023-04-10T22:42:12.407Z,97678.78
2023-04-10T22:44:13.751Z,97667.72
2023-04-10T22:46:15.346Z,97668.56
2023-04-10T22:48:16.786Z,97665.13
2023-04-10T22:50:18.163Z,97658.34
2023-04-10T22:52:19.462Z,97659.09
2023-04-10T22:54:20.760Z,97662.44
2023-04-10T22:56:26.624Z,97650.50
2023-04-10T22:58:28.033Z,97653.97
2023-04-10T23:00:29.958Z,97655.63
2023-04-10T23:02:31.482Z,97659.09
2023-04-10T23:04:32.956Z,97656.53
2023-04-10T23:06:34.383Z,97654.84
2023-04-10T23:08:35.731Z,97643.78
2023-04-10T23:10:37.015Z,97652.38
2023-04-10T23:12:38.362Z,97643.94
2023-04-10T23:14:39.654Z,97646.56
2023-04-10T23:16:41.012Z,97635.50
2023-04-10T23:18:42.363Z,97633.81
2023-04-10T23:20:43.662Z,97630.50
2023-04-10T23:22:45.001Z,97623.81
2023-04-10T23:24:46.564Z,97620.44
2023-04-10T23:26:47.959Z,97619.63
2023-04-10T23:28:49.340Z,97601.81
2023-04-10T23:30:50.711Z,97602.66
2023-04-10T23:32:52.100Z,97603.50
2023-04-10T23:34:53.392Z,97593.28
2023-04-10T23:36:54.784Z,97585.63
2023-04-10T23:38:56.130Z,97588.13
2023-04-10T23:40:57.429Z,97582.22
2023-04-10T23:42:58.821Z,97577.19
2023-04-10T23:45:00.177Z,97561.97
2023-04-10T23:47:01.552Z,97563.72
2023-04-10T23:49:02.911Z,97545.88
2023-04-10T23:51:04.705Z,97545.94
2023-04-10T23:53:12.783Z,97528.13